Time;durP1;ratioP1;P1;durP2;ratioP2;P2;SDS_P1;SDS_P2;PMS_P1;PMS_P2;Temp;Humidity;BMP_temperature;BMP_pressure;BME280_temperature;BME280_humidity;BME280_pressure;Samples;Min_cycle;Max_cycle;Signal;HPM_P1;HPM_P2
2022/01/09 00:01:49;;;;;;;79.00;39.07;;;0.90;99.90;;;;;;4176063;28;20274;-59
2022/01/09 00:03:50;;;;;;;67.43;34.70;;;0.80;99.90;;;;;;4174231;28;20262;-57
2022/01/09 00:05:51;;;;;;;69.67;35.60;;;0.80;99.90;;;;;;4175513;28;20324;-56
2022/01/09 00:07:53;;;;;;;63.13;32.93;;;0.80;99.90;;;;;;4174246;28;20316;-57
2022/01/09 00:09:56;;;;;;;71.37;35.30;;;0.80;99.90;;;;;;4175139;28;20277;-59
2022/01/09 00:11:57;;;;;;;79.90;40.47;;;0.80;99.90;;;;;;4173908;28;20262;-57
2022/01/09 00:13:58;;;;;;;72.47;36.90;;;0.80;99.90;;;;;;4175238;28;20270;-54
2022/01/09 00:15:59;;;;;;;74.83;38.63;;;0.80;99.90;;;;;;4174303;28;20747;-57
2022/01/09 00:18:00;;;;;;;72.13;36.90;;;0.80;99.90;;;;;;4174543;28;20302;-53
2022/01/09 00:20:03;;;;;;;68.80;35.10;;;0.80;99.90;;;;;;4174813;28;20269;-57
2022/01/09 00:22:05;;;;;;;63.67;32.83;;;0.90;99.90;;;;;;4174253;28;20336;-57
2022/01/09 00:24:06;;;;;;;59.37;31.07;;;0.90;99.90;;;;;;4174948;28;20281;-64
2022/01/09 00:26:08;;;;;;;61.73;31.03;;;0.90;99.90;;;;;;4173948;28;20328;-54
2022/01/09 00:28:09;;;;;;;62.50;31.07;;;0.90;99.90;;;;;;4188947;28;20281;-60
2022/01/09 00:30:13;;;;;;;63.40;31.57;;;0.90;99.90;;;;;;4190364;28;20319;-54
2022/01/09 00:32:14;;;;;;;62.73;31.90;;;0.80;99.90;;;;;;4192250;28;20266;-58
2022/01/09 00:34:15;;;;;;;58.73;31.23;;;0.80;99.90;;;;;;4190138;28;20320;-63
2022/01/09 00:36:17;;;;;;;66.37;33.13;;;0.80;99.90;;;;;;4191559;28;20281;-55
2022/01/09 00:38:19;;;;;;;70.43;34.93;;;0.80;99.90;;;;;;4189905;28;20298;-55
2022/01/09 00:40:20;;;;;;;70.17;35.97;;;0.70;99.90;;;;;;4191584;28;20738;-58
2022/01/09 00:42:21;;;;;;;71.50;37.23;;;0.80;99.90;;;;;;4190195;28;20315;-53
2022/01/09 00:44:22;;;;;;;77.30;38.70;;;0.70;99.90;;;;;;4190671;28;20966;-57
2022/01/09 00:46:23;;;;;;;80.63;39.67;;;0.70;99.90;;;;;;4189895;28;20246;-51
2022/01/09 00:48:24;;;;;;;75.10;39.33;;;0.70;99.90;;;;;;4190614;28;20315;-64
2022/01/09 00:50:26;;;;;;;80.77;42.20;;;0.70;99.90;;;;;;4190345;28;20730;-55
2022/01/09 00:52:27;;;;;;;73.13;37.73;;;0.70;99.90;;;;;;4190094;28;20281;-60
2022/01/09 00:54:28;;;;;;;69.00;34.03;;;0.70;99.90;;;;;;4191030;28;20261;-60
2022/01/09 00:56:29;;;;;;;63.80;34.27;;;0.70;99.90;;;;;;4190063;28;20266;-58
2022/01/09 00:58:30;;;;;;;77.73;36.20;;;0.70;99.90;;;;;;4191430;28;20297;-53
2022/01/09 01:00:35;;;;;;;70.80;37.63;;;0.60;99.90;;;;;;4189613;28;20315;-53
2022/01/09 01:02:36;;;;;;;72.27;39.30;;;0.60;99.90;;;;;;4191463;28;20265;-55
2022/01/09 01:04:39;;;;;;;76.63;39.80;;;0.60;99.90;;;;;;4189495;28;20262;-54
2022/01/09 01:06:41;;;;;;;80.70;43.87;;;0.60;99.90;;;;;;4191031;28;20283;-60
2022/01/09 01:08:42;;;;;;;72.60;38.20;;;0.70;99.90;;;;;;4189917;28;21230;-64
2022/01/09 01:10:43;;;;;;;67.10;34.73;;;0.60;99.90;;;;;;4191208;28;20261;-58
2022/01/09 01:12:44;;;;;;;68.83;35.17;;;0.70;99.90;;;;;;4189721;28;20478;-59
2022/01/09 01:14:46;;;;;;;68.70;34.67;;;0.60;99.90;;;;;;4190854;28;20731;-60
2022/01/09 01:16:47;;;;;;;67.63;33.43;;;0.60;99.90;;;;;;4189477;28;20672;-56
2022/01/09 01:18:48;;;;;;;62.93;33.60;;;0.70;99.90;;;;;;4190402;28;20293;-56
2022/01/09 01:20:49;;;;;;;61.70;31.13;;;0.60;99.90;;;;;;4190195;28;20265;-53
2022/01/09 01:22:51;;;;;;;67.00;33.80;;;0.70;99.90;;;;;;4190398;28;20299;-56
2022/01/09 01:24:53;;;;;;;64.70;34.77;;;0.70;99.90;;;;;;4190139;28;20632;-59
2022/01/09 01:26:54;;;;;;;72.30;34.37;;;0.70;99.90;;;;;;4189540;28;20358;-54
2022/01/09 01:28:55;;;;;;;81.23;38.13;;;0.70;99.90;;;;;;4190154;28;20285;-56
2022/01/09 01:30:57;;;;;;;75.03;40.73;;;0.70;99.90;;;;;;4189445;28;20836;-58
2022/01/09 01:32:58;;;;;;;72.30;36.87;;;0.60;99.90;;;;;;4191141;28;20277;-62
2022/01/09 01:34:59;;;;;;;69.70;38.73;;;0.60;99.90;;;;;;4189174;28;20794;-61
2022/01/09 01:37:00;;;;;;;84.43;46.57;;;0.70;99.90;;;;;;4190354;28;20273;-61
2022/01/09 01:39:02;;;;;;;80.40;43.00;;;0.60;99.90;;;;;;4189436;28;20354;-49
2022/01/09 01:41:03;;;;;;;60.20;32.47;;;0.60;99.90;;;;;;4190727;28;20335;-58
2022/01/09 01:43:04;;;;;;;68.33;35.27;;;0.60;99.90;;;;;;4189253;28;20802;-59
2022/01/09 01:45:06;;;;;;;62.63;32.70;;;0.60;99.90;;;;;;4190311;28;20281;-58
2022/01/09 01:47:08;;;;;;;59.77;32.50;;;0.70;99.90;;;;;;4189220;28;20249;-55
2022/01/09 01:49:11;;;;;;;56.33;29.67;;;0.70;99.90;;;;;;4190105;28;20672;-58
2022/01/09 01:51:12;;;;;;;56.03;29.57;;;0.70;99.90;;;;;;4189494;28;20261;-54
2022/01/09 01:53:17;;;;;;;54.43;28.10;;;0.70;99.90;;;;;;4190077;28;20269;-57
2022/01/09 01:55:19;;;;;;;55.27;28.47;;;0.80;99.90;;;;;;4189859;28;20299;-57
2022/01/09 01:57:20;;;;;;;56.67;28.53;;;0.80;99.90;;;;;;4191610;28;20261;-60
2022/01/09 01:59:21;;;;;;;53.07;27.90;;;0.80;99.90;;;;;;4193302;28;20763;-57
2022/01/09 02:01:23;;;;;;;48.17;27.07;;;0.80;99.90;;;;;;4192020;28;20269;-52
2022/01/09 02:03:24;;;;;;;54.83;27.57;;;0.80;99.90;;;;;;4194055;28;20281;-58
2022/01/09 02:05:26;;;;;;;53.73;28.00;;;0.90;99.90;;;;;;4192598;28;20320;-57
2022/01/09 02:07:30;;;;;;;57.37;27.93;;;0.80;99.90;;;;;;4193461;28;20315;-59
2022/01/09 02:09:31;;;;;;;52.13;26.27;;;0.80;99.90;;;;;;4192532;28;20668;-58
2022/01/09 02:11:33;;;;;;;54.13;26.30;;;0.80;99.90;;;;;;4194011;28;20269;-55
2022/01/09 02:13:40;;;;;;;49.77;26.30;;;0.90;99.90;;;;;;4192392;28;20370;-57
2022/01/09 02:15:44;;;;;;;49.07;25.93;;;0.80;99.90;;;;;;4193593;28;20330;-56
2022/01/09 02:17:45;;;;;;;53.00;26.97;;;0.80;99.90;;;;;;4192205;28;20684;-55
2022/01/09 02:19:56;;;;;;;55.10;27.83;;;0.80;99.90;;;;;;4193558;28;20257;-61
2022/01/09 02:21:59;;;;;;;53.08;27.17;;;0.80;99.90;;;;;;4192561;28;20676;-56
2022/01/09 02:24:00;;;;;;;55.80;28.40;;;0.70;99.90;;;;;;4193308;28;20040;-62
2022/01/09 02:26:01;;;;;;;52.27;28.07;;;0.80;99.90;;;;;;4192058;28;20315;-53
2022/01/09 02:28:03;;;;;;;53.13;28.50;;;0.80;99.90;;;;;;4192695;28;20843;-59
2022/01/09 02:30:06;;;;;;;55.03;28.53;;;0.70;99.90;;;;;;4192407;28;20257;-58
2022/01/09 02:32:07;;;;;;;58.10;29.40;;;0.80;99.90;;;;;;4192338;28;20299;-52
2022/01/09 02:34:09;;;;;;;60.30;28.57;;;0.70;99.90;;;;;;4193165;28;20266;-55
2022/01/09 02:36:11;;;;;;;51.70;28.47;;;0.80;99.90;;;;;;4192237;28;20273;-58
2022/01/09 02:38:12;;;;;;;57.33;30.47;;;0.80;99.90;;;;;;4192693;28;20819;-55
2022/01/09 02:40:13;;;;;;;58.83;29.93;;;0.80;99.90;;;;;;4191924;28;20334;-57
2022/01/09 02:42:23;;;;;;;52.43;28.20;;;0.80;99.90;;;;;;4193102;28;20285;-56
2022/01/09 02:44:24;;;;;;;58.85;29.48;;;0.80;99.90;;;;;;4191809;28;20273;-57
2022/01/09 02:48:34;;;;;;;57.17;29.20;;;0.80;99.90;;;;;;4191654;28;20327;-57
2022/01/09 02:50:39;;;;;;;59.07;30.07;;;0.90;99.90;;;;;;4192892;28;20277;-56
2022/01/09 02:53:02;;;;;;;56.87;30.47;;;0.90;99.90;;;;;;4190418;28;20316;-54
2022/01/09 02:55:14;;;;;;;55.27;27.60;;;0.90;99.90;;;;;;4192989;28;20611;-61
2022/01/09 02:57:15;;;;;;;51.50;27.70;;;0.80;99.90;;;;;;4191707;28;20273;-57
2022/01/09 02:59:16;;;;;;;52.00;28.60;;;0.80;99.90;;;;;;4192923;28;20761;-57
2022/01/09 03:01:17;;;;;;;56.43;27.43;;;0.80;99.90;;;;;;4191841;28;20277;-53
2022/01/09 03:03:18;;;;;;;54.53;26.73;;;0.80;99.90;;;;;;4192901;28;20327;-56
2022/01/09 03:05:19;;;;;;;52.03;26.77;;;0.80;99.90;;;;;;4191409;28;20270;-56
2022/01/09 03:07:21;;;;;;;54.73;27.00;;;0.80;99.90;;;;;;4192482;28;20273;-55
2022/01/09 03:09:22;;;;;;;51.07;27.17;;;0.80;99.90;;;;;;4191790;28;20331;-55
2022/01/09 03:11:23;;;;;;;51.43;26.97;;;0.80;99.90;;;;;;4192442;28;20269;-59
2022/01/09 03:13:25;;;;;;;52.87;27.23;;;0.80;99.90;;;;;;4191780;28;20761;-56
2022/01/09 03:15:26;;;;;;;53.27;27.83;;;0.80;99.90;;;;;;4191983;28;20265;-59
2022/01/09 03:17:28;;;;;;;49.40;26.47;;;0.90;99.90;;;;;;4192240;28;20253;-56
2022/01/09 03:19:29;;;;;;;49.53;26.33;;;0.90;99.90;;;;;;4191562;28;20331;-60
2022/01/09 03:21:31;;;;;;;45.83;25.50;;;0.90;99.90;;;;;;4192408;28;20319;-56
2022/01/09 03:23:32;;;;;;;49.43;25.57;;;0.90;99.90;;;;;;4190992;28;20327;-54
2022/01/09 03:25:33;;;;;;;45.77;24.57;;;0.90;99.90;;;;;;4192508;28;20277;-53
2022/01/09 03:27:37;;;;;;;43.27;24.10;;;0.90;99.90;;;;;;4190900;28;20331;-57
2022/01/09 03:29:39;;;;;;;45.73;25.03;;;0.90;99.90;;;;;;4192238;28;20972;-57
2022/01/09 03:31:40;;;;;;;44.07;23.70;;;1.00;99.90;;;;;;4191169;28;20350;-56
2022/01/09 03:33:41;;;;;;;45.93;25.10;;;0.90;99.90;;;;;;4192700;28;20261;-62
2022/01/09 03:35:42;;;;;;;47.63;24.50;;;0.90;99.90;;;;;;4191124;28;20277;-59
2022/01/09 03:37:45;;;;;;;49.57;24.83;;;0.90;99.90;;;;;;4192472;28;20327;-54
2022/01/09 03:39:47;;;;;;;53.43;26.30;;;0.90;99.90;;;;;;4191294;28;20281;-56
2022/01/09 03:41:48;;;;;;;51.20;26.30;;;0.80;99.90;;;;;;4192048;28;20788;-60
2022/01/09 03:43:49;;;;;;;48.27;25.20;;;0.80;99.90;;;;;;4191424;28;20326;-58
2022/01/09 03:45:50;;;;;;;47.90;26.00;;;0.80;99.90;;;;;;4191926;28;20307;-57
2022/01/09 03:47:51;;;;;;;48.10;24.87;;;0.80;99.90;;;;;;4191267;28;20253;-57
2022/01/09 03:49:52;;;;;;;48.73;25.77;;;0.80;99.90;;;;;;4190851;28;20265;-57
2022/01/09 03:51:55;;;;;;;45.13;24.87;;;0.80;99.90;;;;;;4191811;28;20335;-57
2022/01/09 03:53:56;;;;;;;49.93;24.07;;;0.80;99.90;;;;;;4190890;28;20344;-61
2022/01/09 03:55:58;;;;;;;48.20;24.47;;;0.70;99.90;;;;;;4192146;28;20250;-57
2022/01/09 03:57:59;;;;;;;48.10;24.77;;;0.70;99.90;;;;;;4190968;28;20262;-64
2022/01/09 04:00:01;;;;;;;48.80;24.57;;;0.70;99.90;;;;;;4191759;28;20293;-50
2022/01/09 04:02:02;;;;;;;50.57;25.73;;;0.80;99.90;;;;;;4191367;28;20324;-58
2022/01/09 04:04:04;;;;;;;47.93;23.80;;;0.80;99.90;;;;;;4191974;28;20269;-59
2022/01/09 04:06:05;;;;;;;46.90;25.33;;;0.70;99.90;;;;;;4190765;28;20319;-59
2022/01/09 04:08:06;;;;;;;50.03;23.13;;;0.80;99.90;;;;;;4191881;28;20319;-54
2022/01/09 04:10:08;;;;;;;45.07;22.77;;;0.80;99.90;;;;;;4190448;28;20269;-56
2022/01/09 04:12:15;;;;;;;39.03;22.27;;;0.80;99.90;;;;;;4191708;28;20652;-58
2022/01/09 04:14:18;;;;;;;44.70;22.77;;;0.90;99.90;;;;;;4190193;28;20307;-61
2022/01/09 04:16:19;;;;;;;39.03;21.77;;;0.90;99.90;;;;;;4191403;28;20271;-57
2022/01/09 04:18:22;;;;;;;42.27;22.60;;;0.90;99.90;;;;;;4190517;28;20270;-53
2022/01/09 04:20:30;;;;;;;46.43;22.60;;;0.90;99.90;;;;;;4189406;28;20262;-59
2022/01/09 04:22:31;;;;;;;43.00;22.37;;;0.90;99.90;;;;;;4191073;28;20265;-57
2022/01/09 04:24:32;;;;;;;38.60;20.93;;;0.80;99.90;;;;;;4190598;28;20715;-62
2022/01/09 04:26:33;;;;;;;38.30;20.03;;;0.80;99.90;;;;;;4191031;28;20249;-57
2022/01/09 04:28:34;;;;;;;37.53;19.77;;;0.80;99.90;;;;;;4190379;28;20278;-58
2022/01/09 04:30:35;;;;;;;38.03;21.00;;;0.80;99.90;;;;;;4191338;28;20954;-54
2022/01/09 04:32:37;;;;;;;37.50;19.03;;;0.90;99.90;;;;;;4190766;28;20293;-56
2022/01/09 04:34:38;;;;;;;34.70;18.93;;;0.90;99.90;;;;;;4191593;28;20720;-54
2022/01/09 04:36:39;;;;;;;39.33;19.30;;;0.90;99.90;;;;;;4190143;28;20339;-54
2022/01/09 04:38:40;;;;;;;36.40;17.60;;;0.90;99.90;;;;;;4191351;28;20289;-58
2022/01/09 04:40:41;;;;;;;33.97;18.10;;;0.80;99.90;;;;;;4189948;28;20273;-57
2022/01/09 04:42:46;;;;;;;32.47;17.27;;;0.80;99.90;;;;;;4191473;28;20326;-57
2022/01/09 04:44:47;;;;;;;30.77;16.60;;;0.90;99.90;;;;;;4189785;28;20285;-56
2022/01/09 04:46:56;;;;;;;26.87;15.13;;;0.80;99.90;;;;;;4190978;28;20273;-55
2022/01/09 04:48:57;;;;;;;25.50;14.97;;;0.80;99.90;;;;;;4188740;28;20331;-55
2022/01/09 04:50:58;;;;;;;28.33;13.87;;;0.80;99.90;;;;;;4190935;28;20327;-57
2022/01/09 04:53:05;;;;;;;27.73;14.90;;;0.80;99.90;;;;;;4190248;28;20261;-60
2022/01/09 04:55:07;;;;;;;24.47;13.73;;;0.80;99.90;;;;;;4190940;28;20779;-57
2022/01/09 04:57:08;;;;;;;27.20;14.17;;;0.80;99.90;;;;;;4189251;28;20258;-55
2022/01/09 04:59:09;;;;;;;21.90;12.80;;;0.90;99.90;;;;;;4189591;28;20335;-56
2022/01/09 05:01:10;;;;;;;21.23;11.47;;;0.80;99.90;;;;;;4190617;28;20861;-56
2022/01/09 05:03:13;;;;;;;21.27;11.20;;;0.90;99.90;;;;;;4190300;28;20258;-57
2022/01/09 05:05:15;;;;;;;21.17;12.03;;;0.90;99.90;;;;;;4191025;28;20354;-57
2022/01/09 05:07:16;;;;;;;21.43;11.53;;;0.90;99.90;;;;;;4189589;28;20274;-57
2022/01/09 05:09:17;;;;;;;24.00;12.40;;;0.90;99.90;;;;;;4191433;28;20808;-59
2022/01/09 05:11:19;;;;;;;19.13;12.20;;;0.90;99.90;;;;;;4189548;28;20277;-56
2022/01/09 05:13:20;;;;;;;25.60;14.37;;;0.80;99.90;;;;;;4191256;28;20809;-58
2022/01/09 05:15:22;;;;;;;27.30;14.67;;;0.70;99.90;;;;;;4189382;28;20327;-58
2022/01/09 05:17:24;;;;;;;26.30;14.20;;;0.70;99.90;;;;;;4190930;28;20269;-54
2022/01/09 05:19:28;;;;;;;23.77;12.77;;;0.80;99.90;;;;;;4189729;28;20330;-57
2022/01/09 05:21:30;;;;;;;24.67;12.93;;;0.70;99.90;;;;;;4190957;28;20326;-56
2022/01/09 05:23:31;;;;;;;21.70;11.70;;;0.70;99.90;;;;;;4189934;28;20273;-57
2022/01/09 05:25:32;;;;;;;21.00;11.93;;;0.60;99.90;;;;;;4190671;28;20927;-56
2022/01/09 05:27:35;;;;;;;18.73;10.80;;;0.60;99.90;;;;;;4189878;28;20263;-56
2022/01/09 05:29:37;;;;;;;16.83;10.03;;;0.60;99.90;;;;;;4189964;28;20391;-54
2022/01/09 05:31:40;;;;;;;17.63;10.33;;;0.60;99.90;;;;;;4189085;28;20281;-56
2022/01/09 05:33:41;;;;;;;20.80;11.83;;;0.60;99.90;;;;;;4190228;28;20685;-52
2022/01/09 05:35:42;;;;;;;21.10;12.00;;;0.70;99.90;;;;;;4190644;28;20327;-54
2022/01/09 05:37:43;;;;;;;21.23;12.37;;;0.70;99.90;;;;;;4189528;28;20791;-57
2022/01/09 05:39:44;;;;;;;22.37;13.57;;;0.70;99.90;;;;;;4190554;28;20293;-55
2022/01/09 05:41:46;;;;;;;23.97;14.40;;;0.80;99.90;;;;;;4189178;28;20355;-57
2022/01/09 05:43:48;;;;;;;28.20;15.47;;;0.80;99.90;;;;;;4189958;28;20315;-52
2022/01/09 05:45:49;;;;;;;25.07;13.80;;;0.80;99.90;;;;;;4188987;28;20331;-55
2022/01/09 05:47:50;;;;;;;22.30;13.40;;;0.80;99.90;;;;;;4190491;28;20269;-56
2022/01/09 05:49:51;;;;;;;19.93;10.83;;;0.80;99.90;;;;;;4189417;28;20269;-58
2022/01/09 05:51:52;;;;;;;22.30;12.30;;;0.70;99.90;;;;;;4190253;28;20350;-57
2022/01/09 05:53:53;;;;;;;20.47;11.20;;;0.80;99.90;;;;;;4189255;28;20323;-62
2022/01/09 05:55:55;;;;;;;21.33;10.90;;;0.80;99.90;;;;;;4189642;28;20271;-57
2022/01/09 05:57:57;;;;;;;21.23;11.10;;;0.70;99.90;;;;;;4187645;28;20336;-56
2022/01/09 05:59:58;;;;;;;18.37;10.53;;;0.60;99.90;;;;;;4189968;28;20366;-56
2022/01/09 06:01:59;;;;;;;19.87;10.93;;;0.50;99.90;;;;;;4189784;28;20291;-58
2022/01/09 06:04:00;;;;;;;19.77;10.40;;;0.50;99.90;;;;;;4189730;28;20849;-56
2022/01/09 06:06:02;;;;;;;19.67;10.70;;;0.60;99.90;;;;;;4189571;28;20274;-58
2022/01/09 06:08:04;;;;;;;16.80;10.10;;;0.70;99.90;;;;;;4189449;28;20319;-59
2022/01/09 06:10:06;;;;;;;17.10;9.60;;;0.70;99.90;;;;;;4190570;28;20273;-57
2022/01/09 06:12:08;;;;;;;17.97;10.13;;;0.70;99.90;;;;;;4189344;28;20906;-56
2022/01/09 06:14:09;;;;;;;20.00;11.00;;;0.70;99.90;;;;;;4190059;28;20310;-55
2022/01/09 06:16:10;;;;;;;18.63;9.87;;;0.70;99.90;;;;;;4188942;28;20261;-57
2022/01/09 06:18:14;;;;;;;16.87;10.90;;;0.70;99.90;;;;;;4190617;28;20277;-57
2022/01/09 06:20:16;;;;;;;21.03;10.67;;;0.70;99.90;;;;;;4189075;28;20293;-57
2022/01/09 06:22:18;;;;;;;19.03;10.87;;;0.60;99.90;;;;;;4189829;28;21097;-58
2022/01/09 06:24:19;;;;;;;20.77;12.13;;;0.60;99.90;;;;;;4188417;28;20274;-55
2022/01/09 06:26:21;;;;;;;20.47;11.07;;;0.70;99.90;;;;;;4189833;28;20315;-60
2022/01/09 06:28:23;;;;;;;20.57;11.03;;;0.70;99.90;;;;;;4188667;28;20331;-58
2022/01/09 06:30:24;;;;;;;21.10;11.03;;;0.70;99.90;;;;;;4189546;28;20756;-57
2022/01/09 06:32:25;;;;;;;20.07;10.23;;;0.70;99.90;;;;;;4188860;28;20308;-59
2022/01/09 06:34:26;;;;;;;23.57;11.33;;;0.80;99.90;;;;;;4189820;28;20311;-58
2022/01/09 06:36:27;;;;;;;21.20;12.03;;;0.80;99.90;;;;;;4189053;28;20265;-65
2022/01/09 06:38:28;;;;;;;25.27;12.23;;;0.70;99.90;;;;;;4188820;28;20266;-65
2022/01/09 06:40:30;;;;;;;24.43;13.00;;;0.70;99.90;;;;;;4189871;28;20311;-59
2022/01/09 06:42:31;;;;;;;23.20;12.47;;;0.70;99.90;;;;;;4189113;28;20277;-65
2022/01/09 06:44:33;;;;;;;24.57;12.73;;;0.70;99.90;;;;;;4192812;28;20783;-55
2022/01/09 06:46:34;;;;;;;24.47;13.13;;;0.60;99.90;;;;;;4191618;28;20403;-65
2022/01/09 06:48:35;;;;;;;22.83;13.53;;;0.60;99.90;;;;;;4192711;28;20684;-60
2022/01/09 06:50:36;;;;;;;19.97;11.67;;;0.60;99.90;;;;;;4191244;28;20280;-62
2022/01/09 06:52:38;;;;;;;24.93;11.93;;;0.70;99.90;;;;;;4193059;28;20277;-61
2022/01/09 06:54:39;;;;;;;20.57;12.03;;;0.70;99.90;;;;;;4191246;28;20677;-57
2022/01/09 06:56:41;;;;;;;27.50;15.20;;;0.60;99.90;;;;;;4192891;28;20738;-54
2022/01/09 06:58:42;;;;;;;29.30;14.50;;;0.60;99.90;;;;;;4191170;28;20742;-55
2022/01/09 07:00:44;;;;;;;26.37;14.50;;;0.50;99.90;;;;;;4192708;28;20351;-57
2022/01/09 07:02:45;;;;;;;27.90;13.23;;;0.60;99.90;;;;;;4191548;28;20257;-56
2022/01/09 07:04:46;;;;;;;26.27;13.53;;;0.50;99.90;;;;;;4191953;28;20345;-63
2022/01/09 07:06:48;;;;;;;25.20;13.13;;;0.60;99.90;;;;;;4192002;28;20270;-63
2022/01/09 07:08:49;;;;;;;26.00;14.73;;;0.60;99.90;;;;;;4191550;28;20258;-58
2022/01/09 07:10:50;;;;;;;28.33;14.67;;;0.60;99.90;;;;;;4192403;28;20362;-60
2022/01/09 07:12:51;;;;;;;30.73;15.97;;;0.60;99.90;;;;;;4191217;28;20319;-56
2022/01/09 07:14:52;;;;;;;28.33;16.70;;;0.60;99.90;;;;;;4192265;28;20331;-60
2022/01/09 07:16:53;;;;;;;31.03;16.03;;;0.50;99.90;;;;;;4191205;28;20315;-62
2022/01/09 07:18:54;;;;;;;32.63;15.97;;;0.60;99.90;;;;;;4192715;28;20262;-59
2022/01/09 07:20:56;;;;;;;31.30;16.40;;;0.70;99.90;;;;;;4190893;28;20277;-58
2022/01/09 07:22:57;;;;;;;33.07;16.97;;;0.70;99.90;;;;;;4191950;28;20312;-64
2022/01/09 07:24:58;;;;;;;32.27;16.87;;;0.80;99.90;;;;;;4191052;28;20299;-64
2022/01/09 07:26:59;;;;;;;29.43;16.53;;;0.80;99.90;;;;;;4192157;28;20261;-65
2022/01/09 07:29:00;;;;;;;32.87;16.90;;;0.70;99.90;;;;;;4190075;28;20354;-58
2022/01/09 07:31:02;;;;;;;38.40;18.87;;;0.70;99.90;;;;;;4191465;28;20327;-58
2022/01/09 07:33:04;;;;;;;34.57;17.40;;;0.70;99.90;;;;;;4191092;28;20274;-57
2022/01/09 07:35:06;;;;;;;32.60;16.97;;;0.70;99.90;;;;;;4191709;28;20303;-58
2022/01/09 07:37:07;;;;;;;27.90;14.27;;;0.70;99.90;;;;;;4191442;28;20258;-61
2022/01/09 07:39:08;;;;;;;27.43;15.37;;;0.70;99.90;;;;;;4190965;28;20740;-57
2022/01/09 07:41:12;;;;;;;24.17;13.70;;;0.70;99.90;;;;;;4191327;28;20273;-59
2022/01/09 07:43:13;;;;;;;21.87;11.73;;;0.70;99.90;;;;;;4190578;28;20933;-59
2022/01/09 07:45:16;;;;;;;20.10;11.70;;;0.70;99.90;;;;;;4191825;28;20270;-53
2022/01/09 07:47:17;;;;;;;24.93;12.77;;;0.70;99.90;;;;;;4190447;28;20266;-55
2022/01/09 07:49:18;;;;;;;21.13;12.50;;;0.70;99.90;;;;;;4191962;28;20262;-61
2022/01/09 07:51:19;;;;;;;23.17;12.63;;;0.70;99.90;;;;;;4189661;28;20262;-61
2022/01/09 07:53:23;;;;;;;21.40;11.17;;;0.80;99.90;;;;;;4191094;28;20273;-58
2022/01/09 07:55:24;;;;;;;21.73;10.77;;;0.80;99.90;;;;;;4189309;28;20745;-58
2022/01/09 07:57:25;;;;;;;23.20;12.67;;;0.80;99.90;;;;;;4191619;28;20323;-58
2022/01/09 07:59:26;;;;;;;19.20;12.30;;;0.90;99.90;;;;;;4190309;28;20296;-57
2022/01/09 08:01:28;;;;;;;22.33;12.20;;;1.10;99.90;;;;;;4191894;28;20273;-63
2022/01/09 08:03:29;;;;;;;20.70;12.27;;;1.20;99.90;;;;;;4190555;28;20664;-56
2022/01/09 08:05:30;;;;;;;22.07;11.87;;;1.20;99.90;;;;;;4191212;28;20266;-58
2022/01/09 08:07:31;;;;;;;21.00;11.53;;;1.30;99.90;;;;;;4190438;28;20801;-58
2022/01/09 08:09:32;;;;;;;22.20;12.20;;;1.40;99.90;;;;;;4190840;28;20282;-57
2022/01/09 08:11:35;;;;;;;22.13;11.17;;;1.50;99.90;;;;;;4190840;28;20890;-58
2022/01/09 08:13:36;;;;;;;20.43;10.97;;;1.50;99.90;;;;;;4190125;28;20610;-65
2022/01/09 08:15:37;;;;;;;17.80;11.50;;;1.60;99.90;;;;;;4191385;28;20347;-60
2022/01/09 08:17:42;;;;;;;20.40;11.30;;;1.60;99.90;;;;;;4190271;28;20335;-58
2022/01/09 08:19:43;;;;;;;20.37;10.90;;;1.60;99.90;;;;;;4190475;28;20762;-58
2022/01/09 08:21:44;;;;;;;21.97;11.63;;;1.60;99.90;;;;;;4190516;28;20334;-58
2022/01/09 08:23:49;;;;;;;21.47;11.93;;;1.70;99.90;;;;;;4190916;28;20631;-59
2022/01/09 08:25:50;;;;;;;21.07;11.17;;;1.80;99.90;;;;;;4190023;28;20342;-58
2022/01/09 08:27:52;;;;;;;22.97;11.93;;;1.80;99.90;;;;;;4190715;28;20273;-56
2022/01/09 08:29:54;;;;;;;22.07;12.73;;;1.80;99.90;;;;;;4189984;28;20261;-57
2022/01/09 08:31:55;;;;;;;23.83;13.00;;;1.60;99.90;;;;;;4191463;28;20273;-59
2022/01/09 08:33:56;;;;;;;19.97;12.20;;;1.50;99.90;;;;;;4190341;28;20273;-58
2022/01/09 08:35:57;;;;;;;25.47;14.10;;;1.50;99.90;;;;;;4191395;28;20275;-57
2022/01/09 08:37:58;;;;;;;23.87;12.97;;;1.60;99.90;;;;;;4190184;28;20261;-58
2022/01/09 08:39:59;;;;;;;22.53;14.03;;;1.60;99.90;;;;;;4191046;28;20301;-57
2022/01/09 08:42:00;;;;;;;24.07;13.43;;;1.60;99.90;;;;;;4190292;28;20319;-58
2022/01/09 08:44:02;;;;;;;26.97;15.63;;;1.70;99.90;;;;;;4190304;28;20269;-57
2022/01/09 08:46:03;;;;;;;29.67;16.03;;;1.70;99.90;;;;;;4190694;28;20327;-57
2022/01/09 08:48:05;;;;;;;28.47;16.07;;;1.80;99.90;;;;;;4189770;28;20314;-58
2022/01/09 08:50:07;;;;;;;25.13;14.33;;;1.80;99.90;;;;;;4190825;28;20277;-56
2022/01/09 08:52:09;;;;;;;24.00;14.53;;;1.80;99.90;;;;;;4189890;28;20273;-57
2022/01/09 08:54:10;;;;;;;33.00;16.07;;;1.80;99.90;;;;;;4191013;28;20303;-58
2022/01/09 08:56:11;;;;;;;31.87;17.30;;;1.80;99.90;;;;;;4189741;28;20745;-52
2022/01/09 08:58:12;;;;;;;29.10;15.93;;;1.80;99.90;;;;;;4191253;28;20274;-55
2022/01/09 09:00:14;;;;;;;30.27;16.83;;;1.90;99.90;;;;;;4189239;28;20755;-61
2022/01/09 09:02:16;;;;;;;51.10;25.20;;;1.80;99.90;;;;;;4190737;28;20302;-55
2022/01/09 09:04:17;;;;;;;41.43;23.03;;;1.90;99.90;;;;;;4189519;28;20323;-59
2022/01/09 09:06:18;;;;;;;26.10;15.90;;;1.90;99.90;;;;;;4190553;28;20347;-61
2022/01/09 09:08:19;;;;;;;20.83;13.23;;;1.80;99.90;;;;;;4189520;28;20233;-61
2022/01/09 09:10:20;;;;;;;19.70;12.40;;;1.80;99.90;;;;;;4190779;28;20257;-61
2022/01/09 09:12:21;;;;;;;22.57;13.13;;;1.70;99.90;;;;;;4190077;28;20654;-60
2022/01/09 09:14:23;;;;;;;24.70;14.87;;;1.70;99.90;;;;;;4189522;28;20269;-61
2022/01/09 09:16:24;;;;;;;19.00;11.20;;;1.80;99.90;;;;;;4190314;28;20326;-59
2022/01/09 09:18:25;;;;;;;19.77;11.10;;;1.80;99.90;;;;;;4189268;28;20311;-53
2022/01/09 09:20:26;;;;;;;17.47;10.20;;;1.80;99.90;;;;;;4189045;28;20285;-54
2022/01/09 09:22:28;;;;;;;16.47;10.17;;;1.90;99.90;;;;;;4189066;28;20319;-61
2022/01/09 09:24:29;;;;;;;19.50;11.27;;;1.90;99.90;;;;;;4190420;28;20379;-58
2022/01/09 09:26:30;;;;;;;16.10;9.87;;;2.00;99.90;;;;;;4189011;28;20261;-57
2022/01/09 09:28:31;;;;;;;19.73;10.60;;;2.00;99.90;;;;;;4189978;28;20370;-59
2022/01/09 09:30:32;;;;;;;16.83;9.93;;;2.00;99.90;;;;;;4188536;28;20327;-54
2022/01/09 09:32:34;;;;;;;16.47;9.60;;;2.00;99.90;;;;;;4189807;28;20273;-58
2022/01/09 09:34:39;;;;;;;17.87;11.40;;;2.00;99.90;;;;;;4189645;28;20257;-57
2022/01/09 09:36:40;;;;;;;13.13;8.97;;;2.00;99.90;;;;;;4190429;28;20273;-60
2022/01/09 09:38:41;;;;;;;13.53;8.80;;;2.00;99.90;;;;;;4188643;28;20260;-59
2022/01/09 09:40:42;;;;;;;12.73;8.20;;;2.00;99.90;;;;;;4189616;28;20810;-59
2022/01/09 09:42:43;;;;;;;15.60;9.17;;;2.00;99.90;;;;;;4189253;28;20324;-60
2022/01/09 09:44:46;;;;;;;14.77;8.97;;;2.00;99.90;;;;;;4189429;28;20334;-58
2022/01/09 09:46:49;;;;;;;14.47;8.70;;;2.00;99.90;;;;;;4189427;28;20323;-58
2022/01/09 09:48:54;;;;;;;14.97;7.40;;;2.00;99.90;;;;;;4189026;28;20273;-64
2022/01/09 09:50:55;;;;;;;12.93;8.47;;;1.90;99.90;;;;;;4190103;28;20323;-59
2022/01/09 09:52:58;;;;;;;12.10;7.43;;;1.90;99.90;;;;;;4189157;28;20273;-57
2022/01/09 09:55:00;;;;;;;14.07;8.47;;;1.80;99.90;;;;;;4189778;28;20261;-53
2022/01/09 09:57:01;;;;;;;12.87;7.67;;;1.80;99.90;;;;;;4189450;28;20270;-53
2022/01/09 09:59:02;;;;;;;11.93;7.10;;;1.80;99.90;;;;;;4189979;28;20803;-57
2022/01/09 10:01:03;;;;;;;11.50;7.10;;;1.70;99.90;;;;;;4188764;28;20301;-60
2022/01/09 10:03:04;;;;;;;11.43;6.70;;;1.70;99.90;;;;;;4190328;28;20265;-61
2022/01/09 10:05:06;;;;;;;11.07;6.93;;;1.70;99.90;;;;;;4189263;28;20258;-56
2022/01/09 10:07:21;;;;;;;11.10;6.93;;;1.70;99.90;;;;;;4183299;28;20273;-59
2022/01/09 10:09:23;;;;;;;11.63;7.07;;;1.70;99.90;;;;;;4181573;28;20262;-56
2022/01/09 10:11:25;;;;;;;10.30;6.57;;;1.70;99.90;;;;;;4189577;28;20295;-54
2022/01/09 10:13:26;;;;;;;13.50;7.60;;;1.70;99.90;;;;;;4188713;28;20261;-51
2022/01/09 10:15:27;;;;;;;12.93;8.23;;;1.80;99.90;;;;;;4189574;28;20669;-59
2022/01/09 10:17:28;;;;;;;16.53;8.47;;;1.80;99.90;;;;;;4189087;28;20277;-56
2022/01/09 10:19:50;;;;;;;17.57;9.97;;;1.80;99.90;;;;;;4192008;28;20311;-60
2022/01/09 10:21:51;;;;;;;15.77;9.40;;;1.70;99.90;;;;;;4191598;28;20285;-57
2022/01/09 10:24:07;;;;;;;13.23;8.23;;;1.70;99.90;;;;;;4192853;28;20755;-57
2022/01/09 10:26:11;;;;;;;16.13;10.03;;;1.70;99.90;;;;;;4191474;28;20323;-60
2022/01/09 10:28:17;;;;;;;16.07;9.73;;;1.60;99.90;;;;;;4192598;28;20281;-60
2022/01/09 10:30:22;;;;;;;18.57;10.50;;;1.60;99.90;;;;;;4192151;28;20296;-55